sensor_id;sensor_type;location;lat;lon;timestamp;P1;durP1;ratioP1;P2;durP2;ratioP2
9280;SDS011;4679;47.966;7.958;2022-09-11T06:56:08;0.97;;;0.30;;
9280;SDS011;4679;47.966;7.958;2022-09-11T06:58:12;1.43;;;0.40;;
9280;SDS011;4679;47.966;7.958;2022-09-11T07:00:14;1.57;;;0.60;;
9280;SDS011;4679;47.966;7.958;2022-09-11T07:02:16;0.60;;;0.50;;
9280;SDS011;4679;47.966;7.958;2022-09-11T07:04:18;0.50;;;0.50;;
9280;SDS011;4679;47.966;7.958;2022-09-11T07:06:23;1.63;;;0.40;;
9280;SDS011;4679;47.966;7.958;2022-09-11T07:08:26;0.90;;;0.40;;
9280;SDS011;4679;47.966;7.958;2022-09-11T07:10:28;0.60;;;0.40;;
9280;SDS011;4679;47.966;7.958;2022-09-11T07:12:31;0.50;;;0.40;;
9280;SDS011;4679;47.966;7.958;2022-09-11T07:14:32;0.70;;;0.50;;
9280;SDS011;4679;47.966;7.958;2022-09-11T07:16:34;0.50;;;0.40;;
9280;SDS011;4679;47.966;7.958;2022-09-11T07:18:37;0.77;;;0.40;;
9280;SDS011;4679;47.966;7.958;2022-09-11T07:20:40;0.40;;;0.40;;
9280;SDS011;4679;47.966;7.958;2022-09-11T07:22:42;1.13;;;0.40;;
9280;SDS011;4679;47.966;7.958;2022-09-11T07:24:44;1.37;;;0.40;;
9280;SDS011;4679;47.966;7.958;2022-09-11T07:26:46;0.40;;;0.40;;
9280;SDS011;4679;47.966;7.958;2022-09-11T07:28:49;1.43;;;0.40;;
9280;SDS011;4679;47.966;7.958;2022-09-11T07:30:51;1.43;;;0.40;;
9280;SDS011;4679;47.966;7.958;2022-09-11T07:32:53;0.97;;;0.57;;
9280;SDS011;4679;47.966;7.958;2022-09-11T07:34:55;1.10;;;0.40;;
9280;SDS011;4679;47.966;7.958;2022-09-11T07:36:56;2.43;;;0.40;;
9280;SDS011;4679;47.966;7.958;2022-09-11T07:38:58;1.20;;;0.40;;
9280;SDS011;4679;47.966;7.958;2022-09-11T07:41:00;1.20;;;0.30;;
9280;SDS011;4679;47.966;7.958;2022-09-11T07:43:02;0.30;;;0.30;;
9280;SDS011;4679;47.966;7.958;2022-09-11T07:45:06;0.30;;;0.30;;
9280;SDS011;4679;47.966;7.958;2022-09-11T07:47:09;0.43;;;0.43;;
9280;SDS011;4679;47.966;7.958;2022-09-11T07:49:10;0.73;;;0.40;;
9280;SDS011;4679;47.966;7.958;2022-09-11T07:51:13;0.60;;;0.50;;
9280;SDS011;4679;47.966;7.958;2022-09-11T07:53:16;0.63;;;0.40;;
9280;SDS011;4679;47.966;7.958;2022-09-11T07:55:18;2.53;;;0.30;;
9280;SDS011;4679;47.966;7.958;2022-09-11T07:57:20;1.27;;;0.40;;
9280;SDS011;4679;47.966;7.958;2022-09-11T07:59:23;0.43;;;0.40;;
9280;SDS011;4679;47.966;7.958;2022-09-11T08:01:27;0.50;;;0.50;;
9280;SDS011;4679;47.966;7.958;2022-09-11T08:03:29;1.93;;;0.50;;
9280;SDS011;4679;47.966;7.958;2022-09-11T08:05:31;0.83;;;0.30;;
9280;SDS011;4679;47.966;7.958;2022-09-11T08:07:33;1.33;;;0.40;;
9280;SDS011;4679;47.966;7.958;2022-09-11T08:09:35;2.37;;;0.50;;
9280;SDS011;4679;47.966;7.958;2022-09-11T08:11:37;1.63;;;0.50;;
9280;SDS011;4679;47.966;7.958;2022-09-11T08:13:39;0.63;;;0.47;;
9280;SDS011;4679;47.966;7.958;2022-09-11T08:15:44;0.53;;;0.50;;
9280;SDS011;4679;47.966;7.958;2022-09-11T08:17:48;0.70;;;0.50;;
9280;SDS011;4679;47.966;7.958;2022-09-11T08:19:51;1.83;;;0.40;;
9280;SDS011;4679;47.966;7.958;2022-09-11T08:21:52;0.67;;;0.40;;
9280;SDS011;4679;47.966;7.958;2022-09-11T08:23:56;2.03;;;0.70;;
9280;SDS011;4679;47.966;7.958;2022-09-11T08:26:02;0.90;;;0.57;;
9280;SDS011;4679;47.966;7.958;2022-09-11T08:28:04;2.50;;;0.40;;
9280;SDS011;4679;47.966;7.958;2022-09-11T08:30:07;0.30;;;0.30;;
9280;SDS011;4679;47.966;7.958;2022-09-11T08:32:10;1.77;;;0.60;;
9280;SDS011;4679;47.966;7.958;2022-09-11T08:34:13;0.40;;;0.37;;
9280;SDS011;4679;47.966;7.958;2022-09-11T08:36:15;3.77;;;0.47;;
9280;SDS011;4679;47.966;7.958;2022-09-11T08:38:17;1.27;;;0.40;;
9280;SDS011;4679;47.966;7.958;2022-09-11T08:40:19;2.87;;;0.80;;
9280;SDS011;4679;47.966;7.958;2022-09-11T08:42:21;0.80;;;0.40;;
9280;SDS011;4679;47.966;7.958;2022-09-11T08:44:24;1.00;;;0.30;;
9280;SDS011;4679;47.966;7.958;2022-09-11T08:46:30;0.50;;;0.30;;
9280;SDS011;4679;47.966;7.958;2022-09-11T08:48:37;1.00;;;0.53;;
9280;SDS011;4679;47.966;7.958;2022-09-11T08:50:48;0.30;;;0.30;;
9280;SDS011;4679;47.966;7.958;2022-09-11T08:52:50;0.53;;;0.40;;
9280;SDS011;4679;47.966;7.958;2022-09-11T08:54:54;0.50;;;0.50;;
9280;SDS011;4679;47.966;7.958;2022-09-11T08:57:01;0.40;;;0.40;;
9280;SDS011;4679;47.966;7.958;2022-09-11T08:59:15;1.17;;;0.77;;
9280;SDS011;4679;47.966;7.958;2022-09-11T09:01:25;0.30;;;0.30;;
9280;SDS011;4679;47.966;7.958;2022-09-11T09:03:46;1.57;;;0.40;;
9280;SDS011;4679;47.966;7.958;2022-09-11T09:05:58;0.50;;;0.40;;
9280;SDS011;4679;47.966;7.958;2022-09-11T09:08:20;2.10;;;0.40;;
9280;SDS011;4679;47.966;7.958;2022-09-11T09:10:39;0.50;;;0.40;;
9280;SDS011;4679;47.966;7.958;2022-09-11T09:12:51;0.63;;;0.40;;
9280;SDS011;4679;47.966;7.958;2022-09-11T09:15:06;0.93;;;0.40;;
9280;SDS011;4679;47.966;7.958;2022-09-11T09:17:18;0.33;;;0.33;;
9280;SDS011;4679;47.966;7.958;2022-09-11T09:19:24;0.30;;;0.30;;
9280;SDS011;4679;47.966;7.958;2022-09-11T09:21:31;1.07;;;0.47;;
9280;SDS011;4679;47.966;7.958;2022-09-11T09:23:39;0.67;;;0.40;;
9280;SDS011;4679;47.966;7.958;2022-09-11T09:25:43;0.47;;;0.40;;
9280;SDS011;4679;47.966;7.958;2022-09-11T09:27:47;3.00;;;0.40;;
9280;SDS011;4679;47.966;7.958;2022-09-11T09:29:53;0.93;;;0.20;;
9280;SDS011;4679;47.966;7.958;2022-09-11T09:31:58;0.40;;;0.30;;
9280;SDS011;4679;47.966;7.958;2022-09-11T09:34:05;0.50;;;0.30;;
9280;SDS011;4679;47.966;7.958;2022-09-11T09:36:15;2.00;;;0.40;;
9280;SDS011;4679;47.966;7.958;2022-09-11T09:38:22;1.13;;;0.30;;
9280;SDS011;4679;47.966;7.958;2022-09-11T09:40:27;0.50;;;0.37;;
9280;SDS011;4679;47.966;7.958;2022-09-11T09:42:37;0.40;;;0.40;;
9280;SDS011;4679;47.966;7.958;2022-09-11T09:44:50;1.70;;;0.60;;
9280;SDS011;4679;47.966;7.958;2022-09-11T09:47:02;0.33;;;0.20;;
9280;SDS011;4679;47.966;7.958;2022-09-11T09:49:06;0.50;;;0.40;;
9280;SDS011;4679;47.966;7.958;2022-09-11T09:51:10;0.43;;;0.23;;
9280;SDS011;4679;47.966;7.958;2022-09-11T09:53:15;0.40;;;0.37;;
9280;SDS011;4679;47.966;7.958;2022-09-11T09:55:28;1.03;;;0.40;;
9280;SDS011;4679;47.966;7.958;2022-09-11T09:57:32;0.33;;;0.30;;
9280;SDS011;4679;47.966;7.958;2022-09-11T09:59:36;1.10;;;0.30;;
9280;SDS011;4679;47.966;7.958;2022-09-11T10:01:45;0.20;;;0.20;;
9280;SDS011;4679;47.966;7.958;2022-09-11T10:03:55;0.90;;;0.37;;
9280;SDS011;4679;47.966;7.958;2022-09-11T10:06:10;0.40;;;0.40;;
9280;SDS011;4679;47.966;7.958;2022-09-11T10:08:23;1.77;;;0.60;;
9280;SDS011;4679;47.966;7.958;2022-09-11T10:10:29;1.67;;;0.40;;
9280;SDS011;4679;47.966;7.958;2022-09-11T10:12:33;0.70;;;0.23;;
9280;SDS011;4679;47.966;7.958;2022-09-11T10:14:37;0.40;;;0.40;;
9280;SDS011;4679;47.966;7.958;2022-09-11T10:16:46;0.33;;;0.30;;
9280;SDS011;4679;47.966;7.958;2022-09-11T10:18:49;0.30;;;0.30;;
9280;SDS011;4679;47.966;7.958;2022-09-11T10:20:50;0.20;;;0.20;;
9280;SDS011;4679;47.966;7.958;2022-09-11T10:22:54;0.60;;;0.30;;
9280;SDS011;4679;47.966;7.958;2022-09-11T10:25:00;0.57;;;0.33;;
9280;SDS011;4679;47.966;7.958;2022-09-11T10:27:13;1.90;;;0.40;;
9280;SDS011;4679;47.966;7.958;2022-09-11T10:29:16;1.40;;;0.57;;
9280;SDS011;4679;47.966;7.958;2022-09-11T10:31:23;2.77;;;0.43;;
9280;SDS011;4679;47.966;7.958;2022-09-11T10:33:26;1.13;;;0.30;;
9280;SDS011;4679;47.966;7.958;2022-09-11T10:35:30;0.77;;;0.30;;
9280;SDS011;4679;47.966;7.958;2022-09-11T10:37:35;1.20;;;0.30;;
9280;SDS011;4679;47.966;7.958;2022-09-11T10:39:38;4.50;;;0.60;;
9280;SDS011;4679;47.966;7.958;2022-09-11T10:41:43;0.43;;;0.40;;
9280;SDS011;4679;47.966;7.958;2022-09-11T10:43:53;0.30;;;0.30;;
9280;SDS011;4679;47.966;7.958;2022-09-11T10:46:03;1.90;;;0.50;;
9280;SDS011;4679;47.966;7.958;2022-09-11T10:48:14;1.10;;;0.50;;
9280;SDS011;4679;47.966;7.958;2022-09-11T10:50:20;0.33;;;0.30;;
9280;SDS011;4679;47.966;7.958;2022-09-11T10:52:24;0.80;;;0.77;;
9280;SDS011;4679;47.966;7.958;2022-09-11T10:54:30;2.00;;;0.40;;
9280;SDS011;4679;47.966;7.958;2022-09-11T10:56:51;0.53;;;0.50;;
9280;SDS011;4679;47.966;7.958;2022-09-11T10:59:01;2.10;;;0.40;;
9280;SDS011;4679;47.966;7.958;2022-09-11T11:01:12;0.33;;;0.27;;
9280;SDS011;4679;47.966;7.958;2022-09-11T11:03:15;1.03;;;0.50;;
9280;SDS011;4679;47.966;7.958;2022-09-11T11:05:20;0.53;;;0.40;;
9280;SDS011;4679;47.966;7.958;2022-09-11T11:07:36;0.60;;;0.50;;
9280;SDS011;4679;47.966;7.958;2022-09-11T11:10:03;0.50;;;0.40;;
9280;SDS011;4679;47.966;7.958;2022-09-11T11:12:20;1.50;;;0.37;;
9280;SDS011;4679;47.966;7.958;2022-09-11T11:14:44;0.40;;;0.30;;
9280;SDS011;4679;47.966;7.958;2022-09-11T11:16:56;0.70;;;0.30;;
9280;SDS011;4679;47.966;7.958;2022-09-11T11:19:09;0.30;;;0.30;;
9280;SDS011;4679;47.966;7.958;2022-09-11T11:21:26;1.30;;;0.50;;
9280;SDS011;4679;47.966;7.958;2022-09-11T11:23:43;0.40;;;0.40;;
9280;SDS011;4679;47.966;7.958;2022-09-11T11:25:54;1.42;;;0.40;;
9280;SDS011;4679;47.966;7.958;2022-09-11T11:28:09;0.50;;;0.40;;
9280;SDS011;4679;47.966;7.958;2022-09-11T11:30:28;0.35;;;0.35;;
9280;SDS011;4679;47.966;7.958;2022-09-11T11:32:41;0.30;;;0.30;;
9280;SDS011;4679;47.966;7.958;2022-09-11T11:35:20;0.93;;;0.57;;
9280;SDS011;4679;47.966;7.958;2022-09-11T11:37:26;1.05;;;0.30;;
9280;SDS011;4679;47.966;7.958;2022-09-11T11:39:34;0.43;;;0.40;;
9280;SDS011;4679;47.966;7.958;2022-09-11T11:41:41;1.75;;;0.38;;
9280;SDS011;4679;47.966;7.958;2022-09-11T11:43:47;0.30;;;0.30;;
9280;SDS011;4679;47.966;7.958;2022-09-11T11:45:54;0.32;;;0.30;;
9280;SDS011;4679;47.966;7.958;2022-09-11T11:48:04;0.57;;;0.40;;
9280;SDS011;4679;47.966;7.958;2022-09-11T11:50:15;0.43;;;0.32;;
9280;SDS011;4679;47.966;7.958;2022-09-11T11:52:25;0.38;;;0.35;;
9280;SDS011;4679;47.966;7.958;2022-09-11T11:54:36;1.15;;;0.32;;
9280;SDS011;4679;47.966;7.958;2022-09-11T11:56:44;1.00;;;0.40;;
9280;SDS011;4679;47.966;7.958;2022-09-11T11:58:51;1.90;;;0.30;;
9280;SDS011;4679;47.966;7.958;2022-09-11T12:00:58;0.43;;;0.32;;
9280;SDS011;4679;47.966;7.958;2022-09-11T12:03:07;0.68;;;0.35;;
9280;SDS011;4679;47.966;7.958;2022-09-11T12:05:14;0.30;;;0.30;;
9280;SDS011;4679;47.966;7.958;2022-09-11T12:07:20;0.40;;;0.40;;
9280;SDS011;4679;47.966;7.958;2022-09-11T12:09:24;1.27;;;0.35;;
9280;SDS011;4679;47.966;7.958;2022-09-11T12:11:31;0.45;;;0.43;;
9280;SDS011;4679;47.966;7.958;2022-09-11T12:13:34;1.65;;;0.35;;
9280;SDS011;4679;47.966;7.958;2022-09-11T12:15:56;0.77;;;0.28;;
9280;SDS011;4679;47.966;7.958;2022-09-11T12:18:02;0.30;;;0.30;;
9280;SDS011;4679;47.966;7.958;2022-09-11T12:20:12;0.30;;;0.30;;
9280;SDS011;4679;47.966;7.958;2022-09-11T12:22:31;0.38;;;0.35;;
9280;SDS011;4679;47.966;7.958;2022-09-11T12:24:50;0.40;;;0.30;;
9280;SDS011;4679;47.966;7.958;2022-09-11T12:34:23;0.65;;;0.40;;
9280;SDS011;4679;47.966;7.958;2022-09-11T12:36:29;1.00;;;0.40;;
9280;SDS011;4679;47.966;7.958;2022-09-11T12:38:35;0.20;;;0.20;;
9280;SDS011;4679;47.966;7.958;2022-09-11T12:40:46;0.55;;;0.30;;
9280;SDS011;4679;47.966;7.958;2022-09-11T12:42:56;1.08;;;0.40;;
9280;SDS011;4679;47.966;7.958;2022-09-11T12:45:00;0.55;;;0.40;;
9280;SDS011;4679;47.966;7.958;2022-09-11T12:47:04;1.00;;;0.40;;
9280;SDS011;4679;47.966;7.958;2022-09-11T12:49:15;0.30;;;0.30;;
9280;SDS011;4679;47.966;7.958;2022-09-11T12:51:20;0.30;;;0.30;;
9280;SDS011;4679;47.966;7.958;2022-09-11T12:53:26;0.20;;;0.20;;
9280;SDS011;4679;47.966;7.958;2022-09-11T12:55:32;0.52;;;0.30;;
9280;SDS011;4679;47.966;7.958;2022-09-11T12:57:38;0.55;;;0.40;;
9280;SDS011;4679;47.966;7.958;2022-09-11T12:59:41;0.47;;;0.30;;
9280;SDS011;4679;47.966;7.958;2022-09-11T13:01:46;0.25;;;0.20;;
9280;SDS011;4679;47.966;7.958;2022-09-11T13:03:49;0.40;;;0.40;;
9280;SDS011;4679;47.966;7.958;2022-09-11T13:05:57;0.85;;;0.30;;
9280;SDS011;4679;47.966;7.958;2022-09-11T13:08:03;0.68;;;0.40;;
9280;SDS011;4679;47.966;7.958;2022-09-11T13:10:19;0.43;;;0.30;;
9280;SDS011;4679;47.966;7.958;2022-09-11T13:12:47;1.02;;;0.47;;
9280;SDS011;4679;47.966;7.958;2022-09-11T13:14:51;0.47;;;0.30;;
9280;SDS011;4679;47.966;7.958;2022-09-11T13:16:54;1.38;;;0.30;;
9280;SDS011;4679;47.966;7.958;2022-09-11T13:18:57;0.50;;;0.30;;
9280;SDS011;4679;47.966;7.958;2022-09-11T13:21:11;1.20;;;0.22;;
9280;SDS011;4679;47.966;7.958;2022-09-11T13:23:14;0.57;;;0.40;;
9280;SDS011;4679;47.966;7.958;2022-09-11T13:25:19;1.08;;;0.45;;
9280;SDS011;4679;47.966;7.958;2022-09-11T13:27:23;0.28;;;0.28;;
9280;SDS011;4679;47.966;7.958;2022-09-11T13:29:28;0.40;;;0.40;;
9280;SDS011;4679;47.966;7.958;2022-09-11T13:31:32;3.70;;;0.50;;
9280;SDS011;4679;47.966;7.958;2022-09-11T13:33:36;0.30;;;0.30;;
9280;SDS011;4679;47.966;7.958;2022-09-11T13:35:40;0.30;;;0.20;;
9280;SDS011;4679;47.966;7.958;2022-09-11T13:37:49;0.57;;;0.40;;
9280;SDS011;4679;47.966;7.958;2022-09-11T13:39:57;0.57;;;0.40;;
9280;SDS011;4679;47.966;7.958;2022-09-11T13:42:01;0.38;;;0.30;;
9280;SDS011;4679;47.966;7.958;2022-09-11T13:44:05;0.55;;;0.40;;
9280;SDS011;4679;47.966;7.958;2022-09-11T13:46:17;0.30;;;0.30;;
9280;SDS011;4679;47.966;7.958;2022-09-11T13:48:21;2.55;;;0.40;;
9280;SDS011;4679;47.966;7.958;2022-09-11T13:50:24;0.50;;;0.50;;
9280;SDS011;4679;47.966;7.958;2022-09-11T13:52:27;0.50;;;0.50;;
9280;SDS011;4679;47.966;7.958;2022-09-11T13:54:33;0.50;;;0.50;;
9280;SDS011;4679;47.966;7.958;2022-09-11T13:59:25;0.30;;;0.25;;
9280;SDS011;4679;47.966;7.958;2022-09-11T14:01:35;0.52;;;0.30;;
9280;SDS011;4679;47.966;7.958;2022-09-11T14:03:37;0.28;;;0.28;;
9280;SDS011;4679;47.966;7.958;2022-09-11T14:05:46;1.17;;;0.30;;
9280;SDS011;4679;47.966;7.958;2022-09-11T14:07:53;1.00;;;0.28;;
9280;SDS011;4679;47.966;7.958;2022-09-11T14:10:00;0.35;;;0.20;;
9280;SDS011;4679;47.966;7.958;2022-09-11T14:12:05;0.47;;;0.30;;
9280;SDS011;4679;47.966;7.958;2022-09-11T14:14:07;0.45;;;0.40;;
9280;SDS011;4679;47.966;7.958;2022-09-11T14:16:18;0.10;;;0.10;;
9280;SDS011;4679;47.966;7.958;2022-09-11T14:18:24;0.45;;;0.30;;
9280;SDS011;4679;47.966;7.958;2022-09-11T14:20:29;0.20;;;0.20;;
9280;SDS011;4679;47.966;7.958;2022-09-11T14:22:32;0.30;;;0.30;;
9280;SDS011;4679;47.966;7.958;2022-09-11T14:24:34;0.80;;;0.20;;
9280;SDS011;4679;47.966;7.958;2022-09-11T14:26:41;2.30;;;0.30;;
9280;SDS011;4679;47.966;7.958;2022-09-11T14:28:44;0.35;;;0.20;;
9280;SDS011;4679;47.966;7.958;2022-09-11T14:31:02;0.22;;;0.22;;
9280;SDS011;4679;47.966;7.958;2022-09-11T14:33:12;0.30;;;0.30;;
9280;SDS011;4679;47.966;7.958;2022-09-11T14:35:16;0.75;;;0.30;;
9280;SDS011;4679;47.966;7.958;2022-09-11T14:37:18;1.02;;;0.28;;
9280;SDS011;4679;47.966;7.958;2022-09-11T14:39:25;0.40;;;0.20;;
9280;SDS011;4679;47.966;7.958;2022-09-11T14:41:30;0.47;;;0.20;;
9280;SDS011;4679;47.966;7.958;2022-09-11T14:43:34;0.30;;;0.20;;
9280;SDS011;4679;47.966;7.958;2022-09-11T14:45:38;0.20;;;0.20;;
9280;SDS011;4679;47.966;7.958;2022-09-11T14:47:40;0.30;;;0.30;;
9280;SDS011;4679;47.966;7.958;2022-09-11T14:49:43;1.27;;;0.30;;
9280;SDS011;4679;47.966;7.958;2022-09-11T14:51:46;0.30;;;0.30;;
9280;SDS011;4679;47.966;7.958;2022-09-11T14:53:53;0.40;;;0.30;;
9280;SDS011;4679;47.966;7.958;2022-09-11T14:55:57;0.30;;;0.30;;
9280;SDS011;4679;47.966;7.958;2022-09-11T14:58:00;0.38;;;0.30;;
9280;SDS011;4679;47.966;7.958;2022-09-11T15:00:04;0.50;;;0.30;;
9280;SDS011;4679;47.966;7.958;2022-09-11T15:02:08;0.40;;;0.40;;
9280;SDS011;4679;47.966;7.958;2022-09-11T15:04:14;0.75;;;0.32;;
9280;SDS011;4679;47.966;7.958;2022-09-11T15:06:18;1.65;;;0.30;;
9280;SDS011;4679;47.966;7.958;2022-09-11T15:08:20;0.63;;;0.30;;
9280;SDS011;4679;47.966;7.958;2022-09-11T15:10:22;0.30;;;0.30;;
9280;SDS011;4679;47.966;7.958;2022-09-11T15:12:26;3.03;;;0.22;;
9280;SDS011;4679;47.966;7.958;2022-09-11T15:14:28;0.32;;;0.30;;
9280;SDS011;4679;47.966;7.958;2022-09-11T15:16:33;2.10;;;0.40;;
9280;SDS011;4679;47.966;7.958;2022-09-11T15:18:34;0.95;;;0.20;;
9280;SDS011;4679;47.966;7.958;2022-09-11T15:20:36;0.30;;;0.30;;
9280;SDS011;4679;47.966;7.958;2022-09-11T15:22:38;0.30;;;0.30;;
9280;SDS011;4679;47.966;7.958;2022-09-11T15:24:40;0.30;;;0.30;;
9280;SDS011;4679;47.966;7.958;2022-09-11T15:26:42;0.30;;;0.30;;
9280;SDS011;4679;47.966;7.958;2022-09-11T15:28:43;0.30;;;0.30;;
9280;SDS011;4679;47.966;7.958;2022-09-11T15:30:51;0.20;;;0.20;;
9280;SDS011;4679;47.966;7.958;2022-09-11T15:32:57;0.30;;;0.30;;
9280;SDS011;4679;47.966;7.958;2022-09-11T15:34:59;0.80;;;0.20;;
9280;SDS011;4679;47.966;7.958;2022-09-11T15:37:01;0.30;;;0.22;;
9280;SDS011;4679;47.966;7.958;2022-09-11T15:39:02;0.30;;;0.30;;
9280;SDS011;4679;47.966;7.958;2022-09-11T15:41:05;0.60;;;0.40;;
9280;SDS011;4679;47.966;7.958;2022-09-11T15:43:09;0.25;;;0.20;;
9280;SDS011;4679;47.966;7.958;2022-09-11T15:45:11;0.52;;;0.30;;
9280;SDS011;4679;47.966;7.958;2022-09-11T15:47:13;0.22;;;0.22;;
9280;SDS011;4679;47.966;7.958;2022-09-11T15:49:16;0.73;;;0.50;;
9280;SDS011;4679;47.966;7.958;2022-09-11T15:51:20;0.55;;;0.30;;
9280;SDS011;4679;47.966;7.958;2022-09-11T15:53:23;0.43;;;0.40;;
9280;SDS011;4679;47.966;7.958;2022-09-11T15:55:25;0.30;;;0.30;;
9280;SDS011;4679;47.966;7.958;2022-09-11T15:57:29;0.98;;;0.50;;
9280;SDS011;4679;47.966;7.958;2022-09-11T15:59:32;0.30;;;0.30;;
9280;SDS011;4679;47.966;7.958;2022-09-11T16:01:33;0.20;;;0.20;;
9280;SDS011;4679;47.966;7.958;2022-09-11T16:03:36;0.30;;;0.30;;
9280;SDS011;4679;47.966;7.958;2022-09-11T16:05:39;0.30;;;0.30;;
9280;SDS011;4679;47.966;7.958;2022-09-11T16:07:42;0.25;;;0.25;;
9280;SDS011;4679;47.966;7.958;2022-09-11T16:09:43;0.30;;;0.30;;
9280;SDS011;4679;47.966;7.958;2022-09-11T16:11:45;0.68;;;0.40;;
9280;SDS011;4679;47.966;7.958;2022-09-11T16:13:49;0.30;;;0.30;;
9280;SDS011;4679;47.966;7.958;2022-09-11T16:15:59;0.80;;;0.40;;
9280;SDS011;4679;47.966;7.958;2022-09-11T16:18:02;0.80;;;0.30;;
9280;SDS011;4679;47.966;7.958;2022-09-11T16:20:05;0.80;;;0.40;;
9280;SDS011;4679;47.966;7.958;2022-09-11T16:22:08;0.30;;;0.30;;
9280;SDS011;4679;47.966;7.958;2022-09-11T16:24:10;1.15;;;0.35;;
9280;SDS011;4679;47.966;7.958;2022-09-11T16:26:15;0.28;;;0.28;;
9280;SDS011;4679;47.966;7.958;2022-09-11T16:28:18;0.40;;;0.40;;
9280;SDS011;4679;47.966;7.958;2022-09-11T16:30:20;0.30;;;0.30;;
9280;SDS011;4679;47.966;7.958;2022-09-11T16:32:22;0.30;;;0.30;;
9280;SDS011;4679;47.966;7.958;2022-09-11T16:34:37;0.45;;;0.38;;
9280;SDS011;4679;47.966;7.958;2022-09-11T16:36:38;0.40;;;0.30;;
9280;SDS011;4679;47.966;7.958;2022-09-11T16:38:43;0.40;;;0.40;;
9280;SDS011;4679;47.966;7.958;2022-09-11T16:40:45;0.40;;;0.40;;
9280;SDS011;4679;47.966;7.958;2022-09-11T16:42:47;0.40;;;0.40;;
9280;SDS011;4679;47.966;7.958;2022-09-11T16:44:48;0.30;;;0.30;;
9280;SDS011;4679;47.966;7.958;2022-09-11T16:46:50;0.45;;;0.30;;
9280;SDS011;4679;47.966;7.958;2022-09-11T16:48:53;1.05;;;0.40;;
9280;SDS011;4679;47.966;7.958;2022-09-11T16:50:56;0.43;;;0.40;;
9280;SDS011;4679;47.966;7.958;2022-09-11T16:52:58;0.35;;;0.30;;
9280;SDS011;4679;47.966;7.958;2022-09-11T16:55:01;0.60;;;0.45;;
9280;SDS011;4679;47.966;7.958;2022-09-11T16:57:03;1.55;;;0.40;;
9280;SDS011;4679;47.966;7.958;2022-09-11T16:59:05;1.10;;;0.60;;
9280;SDS011;4679;47.966;7.958;2022-09-11T17:01:08;1.05;;;0.40;;
9280;SDS011;4679;47.966;7.958;2022-09-11T17:03:11;0.40;;;0.40;;
9280;SDS011;4679;47.966;7.958;2022-09-11T17:05:13;1.70;;;0.35;;
9280;SDS011;4679;47.966;7.958;2022-09-11T17:07:16;0.80;;;0.40;;
9280;SDS011;4679;47.966;7.958;2022-09-11T17:09:19;0.95;;;0.60;;
9280;SDS011;4679;47.966;7.958;2022-09-11T17:11:22;0.45;;;0.45;;
9280;SDS011;4679;47.966;7.958;2022-09-11T17:13:25;0.90;;;0.60;;
9280;SDS011;4679;47.966;7.958;2022-09-11T17:15:28;1.17;;;0.30;;
9280;SDS011;4679;47.966;7.958;2022-09-11T17:17:30;1.23;;;0.50;;
9280;SDS011;4679;47.966;7.958;2022-09-11T17:19:32;0.55;;;0.40;;
9280;SDS011;4679;47.966;7.958;2022-09-11T17:21:35;1.00;;;0.43;;
9280;SDS011;4679;47.966;7.958;2022-09-11T17:23:38;0.33;;;0.33;;
9280;SDS011;4679;47.966;7.958;2022-09-11T17:25:40;0.47;;;0.47;;
9280;SDS011;4679;47.966;7.958;2022-09-11T17:27:43;1.43;;;0.50;;
9280;SDS011;4679;47.966;7.958;2022-09-11T17:29:45;0.50;;;0.50;;
9280;SDS011;4679;47.966;7.958;2022-09-11T17:31:47;0.93;;;0.40;;
9280;SDS011;4679;47.966;7.958;2022-09-11T17:33:48;0.50;;;0.40;;
9280;SDS011;4679;47.966;7.958;2022-09-11T17:35:50;1.10;;;0.40;;
9280;SDS011;4679;47.966;7.958;2022-09-11T17:37:52;1.47;;;0.50;;
9280;SDS011;4679;47.966;7.958;2022-09-11T17:39:54;1.00;;;0.60;;
9280;SDS011;4679;47.966;7.958;2022-09-11T17:41:56;2.60;;;0.50;;
9280;SDS011;4679;47.966;7.958;2022-09-11T17:44:00;1.03;;;0.50;;
9280;SDS011;4679;47.966;7.958;2022-09-11T17:46:01;4.13;;;0.60;;
9280;SDS011;4679;47.966;7.958;2022-09-11T17:48:05;0.40;;;0.40;;
9280;SDS011;4679;47.966;7.958;2022-09-11T17:50:08;0.63;;;0.50;;
9280;SDS011;4679;47.966;7.958;2022-09-11T17:52:10;0.47;;;0.47;;
9280;SDS011;4679;47.966;7.958;2022-09-11T17:54:13;2.37;;;1.63;;
9280;SDS011;4679;47.966;7.958;2022-09-11T17:56:16;0.40;;;0.40;;
9280;SDS011;4679;47.966;7.958;2022-09-11T17:58:19;0.43;;;0.40;;
9280;SDS011;4679;47.966;7.958;2022-09-11T18:00:22;0.50;;;0.50;;
9280;SDS011;4679;47.966;7.958;2022-09-11T18:02:24;0.40;;;0.40;;
9280;SDS011;4679;47.966;7.958;2022-09-11T18:04:27;0.93;;;0.50;;
9280;SDS011;4679;47.966;7.958;2022-09-11T18:06:29;1.37;;;0.50;;
9280;SDS011;4679;47.966;7.958;2022-09-11T18:08:33;2.23;;;0.50;;
9280;SDS011;4679;47.966;7.958;2022-09-11T18:10:36;0.50;;;0.50;;
9280;SDS011;4679;47.966;7.958;2022-09-11T18:12:37;1.03;;;0.50;;
9280;SDS011;4679;47.966;7.958;2022-09-11T18:14:39;1.53;;;0.40;;
9280;SDS011;4679;47.966;7.958;2022-09-11T18:16:43;0.80;;;0.50;;
9280;SDS011;4679;47.966;7.958;2022-09-11T18:18:46;2.00;;;0.60;;
9280;SDS011;4679;47.966;7.958;2022-09-11T18:20:48;0.40;;;0.40;;
9280;SDS011;4679;47.966;7.958;2022-09-11T18:22:53;0.87;;;0.50;;
9280;SDS011;4679;47.966;7.958;2022-09-11T18:24:55;1.03;;;0.40;;
9280;SDS011;4679;47.966;7.958;2022-09-11T18:26:58;0.67;;;0.67;;
9280;SDS011;4679;47.966;7.958;2022-09-11T18:29:00;0.53;;;0.50;;
9280;SDS011;4679;47.966;7.958;2022-09-11T18:31:04;1.07;;;0.50;;
9280;SDS011;4679;47.966;7.958;2022-09-11T18:33:08;0.57;;;0.57;;
9280;SDS011;4679;47.966;7.958;2022-09-11T18:35:10;1.83;;;0.90;;
9280;SDS011;4679;47.966;7.958;2022-09-11T18:37:12;0.97;;;0.80;;
9280;SDS011;4679;47.966;7.958;2022-09-11T18:39:16;1.00;;;0.90;;
9280;SDS011;4679;47.966;7.958;2022-09-11T18:41:20;2.50;;;0.70;;
9280;SDS011;4679;47.966;7.958;2022-09-11T18:43:23;2.07;;;1.10;;
9280;SDS011;4679;47.966;7.958;2022-09-11T18:45:25;1.33;;;1.23;;
9280;SDS011;4679;47.966;7.958;2022-09-11T18:47:28;3.10;;;1.40;;
9280;SDS011;4679;47.966;7.958;2022-09-11T18:49:31;1.50;;;1.40;;
9280;SDS011;4679;47.966;7.958;2022-09-11T18:51:34;3.40;;;1.10;;
9280;SDS011;4679;47.966;7.958;2022-09-11T18:53:36;2.03;;;1.30;;
9280;SDS011;4679;47.966;7.958;2022-09-11T18:55:38;2.17;;;1.73;;
9280;SDS011;4679;47.966;7.958;2022-09-11T18:57:40;2.50;;;1.30;;
9280;SDS011;4679;47.966;7.958;2022-09-11T18:59:42;3.10;;;1.40;;
9280;SDS011;4679;47.966;7.958;2022-09-11T19:01:44;1.80;;;1.00;;
9280;SDS011;4679;47.966;7.958;2022-09-11T19:03:45;1.50;;;0.87;;
9280;SDS011;4679;47.966;7.958;2022-09-11T19:05:49;1.60;;;0.90;;
9280;SDS011;4679;47.966;7.958;2022-09-11T19:07:52;5.13;;;1.30;;
9280;SDS011;4679;47.966;7.958;2022-09-11T19:09:57;0.90;;;0.90;;
9280;SDS011;4679;47.966;7.958;2022-09-11T19:11:59;1.40;;;1.07;;
9280;SDS011;4679;47.966;7.958;2022-09-11T19:14:03;2.70;;;1.17;;
9280;SDS011;4679;47.966;7.958;2022-09-11T19:16:06;0.90;;;0.90;;
9280;SDS011;4679;47.966;7.958;2022-09-11T19:18:09;2.17;;;0.90;;
9280;SDS011;4679;47.966;7.958;2022-09-11T19:20:11;1.33;;;1.00;;
9280;SDS011;4679;47.966;7.958;2022-09-11T19:22:14;3.40;;;1.00;;
9280;SDS011;4679;47.966;7.958;2022-09-11T19:24:16;1.47;;;1.00;;
9280;SDS011;4679;47.966;7.958;2022-09-11T19:26:18;0.87;;;0.87;;
9280;SDS011;4679;47.966;7.958;2022-09-11T19:28:21;1.87;;;1.00;;
9280;SDS011;4679;47.966;7.958;2022-09-11T19:30:23;2.30;;;0.80;;
9280;SDS011;4679;47.966;7.958;2022-09-11T19:32:25;0.93;;;0.70;;
9280;SDS011;4679;47.966;7.958;2022-09-11T19:34:27;1.50;;;0.70;;
9280;SDS011;4679;47.966;7.958;2022-09-11T19:36:31;2.23;;;0.67;;
9280;SDS011;4679;47.966;7.958;2022-09-11T19:38:37;3.17;;;1.17;;
9280;SDS011;4679;47.966;7.958;2022-09-11T19:40:40;1.00;;;0.80;;
9280;SDS011;4679;47.966;7.958;2022-09-11T19:42:43;2.20;;;0.80;;
9280;SDS011;4679;47.966;7.958;2022-09-11T19:44:44;2.10;;;0.60;;
9280;SDS011;4679;47.966;7.958;2022-09-11T19:46:46;4.77;;;0.70;;
9280;SDS011;4679;47.966;7.958;2022-09-11T19:48:53;0.93;;;0.63;;
9280;SDS011;4679;47.966;7.958;2022-09-11T19:50:57;0.80;;;0.80;;
9280;SDS011;4679;47.966;7.958;2022-09-11T19:53:00;1.60;;;0.80;;
9280;SDS011;4679;47.966;7.958;2022-09-11T19:55:03;0.80;;;0.80;;
9280;SDS011;4679;47.966;7.958;2022-09-11T19:57:05;1.03;;;0.90;;
9280;SDS011;4679;47.966;7.958;2022-09-11T19:59:07;0.77;;;0.77;;
9280;SDS011;4679;47.966;7.958;2022-09-11T20:01:10;1.23;;;0.80;;
9280;SDS011;4679;47.966;7.958;2022-09-11T20:03:13;1.03;;;0.90;;